Time;durP1;ratioP1;P1;durP2;ratioP2;P2;SDS_P1;SDS_P2;PMS_P1;PMS_P2;Temp;Humidity;BMP_temperature;BMP_pressure;BME280_temperature;BME280_humidity;BME280_pressure;Samples;Min_cycle;Max_cycle;Signal;HPM_P1;HPM_P2
2023/05/24 00:01:01;;;;;;;11.30;2.75;;;;;;;8.35;83.21;101254.00;7400452;19;20018;-69
2023/05/24 00:03:33;;;;;;;15.63;4.25;;;;;;;8.34;83.34;101249.63;7399444;19;20086;-69
2023/05/24 00:06:05;;;;;;;17.25;3.65;;;;;;;8.32;83.36;101255.72;7400670;19;20011;-69
2023/05/24 00:08:34;;;;;;;14.50;3.70;;;;;;;8.32;83.74;101250.50;7400619;19;20007;-69
2023/05/24 00:11:03;;;;;;;12.15;3.50;;;;;;;8.35;83.49;101251.38;7400032;19;20018;-69
2023/05/24 00:13:31;;;;;;;15.35;3.65;;;;;;;8.34;83.15;101258.38;7398832;19;20038;-69
2023/05/24 00:16:00;;;;;;;16.75;4.00;;;;;;;8.36;83.43;101261.81;7398547;19;20015;-69
2023/05/24 00:18:30;;;;;;;20.65;3.67;;;;;;;8.37;83.54;101266.19;7399836;19;20027;-70
2023/05/24 00:20:58;;;;;;;16.08;3.13;;;;;;;8.37;83.80;101260.09;7399717;19;20007;-69
2023/05/24 00:23:29;;;;;;;14.02;3.38;;;;;;;8.39;83.48;101261.81;7398802;19;20039;-69
2023/05/24 00:25:58;;;;;;;15.77;3.58;;;;;;;8.43;83.50;101268.78;7402794;19;20024;-70
2023/05/24 00:28:26;;;;;;;17.85;3.15;;;;;;;8.44;83.35;101262.66;7402241;19;20524;-69
2023/05/24 00:30:55;;;;;;;14.32;2.97;;;;;;;8.44;82.84;101262.66;7399916;19;20015;-69
2023/05/24 00:33:24;;;;;;;15.82;3.15;;;;;;;8.44;81.82;101269.63;7398391;19;20018;-69
2023/05/24 00:35:55;;;;;;;14.73;3.15;;;;;;;8.43;82.69;101266.16;7398228;19;20014;-69
2023/05/24 00:38:24;;;;;;;14.60;3.28;;;;;;;8.44;82.59;101272.25;7397863;19;20022;-69
2023/05/24 00:40:55;;;;;;;7.47;2.83;;;;;;;8.43;82.47;101273.16;7399074;19;20011;-69
2023/05/24 00:43:24;;;;;;;13.27;3.22;;;;;;;8.43;82.25;101267.91;7398421;19;20018;-68
2023/05/24 00:46:14;;;;;;;12.93;3.58;;;;;;;8.42;82.40;101260.94;7398931;19;20035;-69
2023/05/24 00:48:42;;;;;;;16.75;3.13;;;;;;;8.42;82.62;101266.16;7399241;19;20018;-69
2023/05/24 00:51:12;;;;;;;11.70;3.70;;;;;;;8.38;81.82;101273.16;7398711;19;20019;-69
2023/05/24 00:53:43;;;;;;;12.57;3.35;;;;;;;8.37;82.37;101274.03;7396369;19;20019;-69
2023/05/24 00:56:15;;;;;;;16.02;3.20;;;;;;;8.35;82.31;101265.31;7397551;19;20366;-72
2023/05/24 00:58:43;;;;;;;14.82;3.28;;;;;;;8.32;82.69;101276.66;7398176;19;20351;-70
2023/05/24 01:01:13;;;;;;;21.77;3.33;;;;;;;8.30;82.46;101272.28;7397865;19;20027;-69
2023/05/24 01:03:42;;;;;;;11.75;3.45;;;;;;;8.28;82.52;101276.69;7397220;19;20018;-70
2023/05/24 01:06:10;;;;;;;14.77;3.22;;;;;;;8.27;82.57;101281.03;7397973;19;20377;-68
2023/05/24 01:08:53;;;;;;;18.67;3.35;;;;;;;8.24;82.43;101283.66;7398267;19;20034;-68
2023/05/24 01:11:38;;;;;;;12.23;3.30;;;;;;;8.22;82.63;101279.31;7398144;19;20099;-69
2023/05/24 01:14:20;;;;;;;15.68;3.38;;;;;;;8.18;82.74;101280.22;7391822;19;20011;-69
2023/05/24 01:16:55;;;;;;;20.60;4.05;;;;;;;8.15;82.15;101287.19;7397132;19;20017;-69
2023/05/24 01:19:54;;;;;;;13.55;3.17;;;;;;;8.13;82.20;101285.44;7398598;19;20478;-71
2023/05/24 01:22:54;;;;;;;19.70;4.05;;;;;;;8.10;83.01;101275.88;7396509;19;20037;-72
2023/05/24 01:25:40;;;;;;;15.25;3.70;;;;;;;8.10;83.22;101278.47;7398323;19;20506;-72
2023/05/24 01:28:13;;;;;;;14.75;3.20;;;;;;;8.11;83.43;101287.19;7398368;19;20474;-70
2023/05/24 01:30:43;;;;;;;12.02;3.35;;;;;;;8.11;83.39;101281.94;7398095;19;20071;-70
2023/05/24 01:33:12;;;;;;;12.85;3.53;;;;;;;8.11;83.61;101288.06;7398226;19;20078;-72
2023/05/24 01:35:41;;;;;;;15.30;3.33;;;;;;;8.07;83.08;101280.22;7395391;19;20015;-71
2023/05/24 01:38:10;;;;;;;14.95;3.15;;;;;;;8.11;83.24;101290.69;7396387;19;20018;-70
2023/05/24 01:40:40;;;;;;;16.35;3.45;;;;;;;8.10;82.98;101293.28;7396432;19;20010;-70
2023/05/24 01:43:18;;;;;;;17.27;3.60;;;;;;;8.09;83.26;101291.56;7395705;19;20022;-71
2023/05/24 01:45:57;;;;;;;13.38;2.80;;;;;;;8.07;83.41;101286.31;7398117;19;20093;-70
2023/05/24 01:48:33;;;;;;;18.60;3.65;;;;;;;8.08;83.12;101293.28;7395886;19;20018;-69
2023/05/24 01:51:05;;;;;;;12.90;3.05;;;;;;;8.10;83.21;101293.28;7395483;19;20086;-69
2023/05/24 01:53:35;;;;;;;14.25;3.58;;;;;;;8.09;83.06;101292.41;7396431;19;20442;-69
2023/05/24 01:56:07;;;;;;;12.93;3.15;;;;;;;8.09;83.03;101288.94;7395602;19;20082;-70
2023/05/24 01:58:42;;;;;;;11.10;3.05;;;;;;;8.10;83.04;101282.81;7397445;19;20014;-69
2023/05/24 02:01:11;;;;;;;10.60;3.30;;;;;;;8.08;82.61;101277.59;7397503;19;20031;-69
2023/05/24 02:03:40;;;;;;;13.57;3.22;;;;;;;8.07;82.65;101278.47;7395914;19;20424;-68
2023/05/24 02:06:09;;;;;;;14.68;3.85;;;;;;;8.06;82.69;101289.81;7394758;19;20632;-69
2023/05/24 02:08:38;;;;;;;12.43;3.15;;;;;;;8.05;82.55;101281.97;7395125;19;20366;-70
2023/05/24 02:11:12;;;;;;;12.43;2.95;;;;;;;8.05;82.60;101282.84;7395002;19;20036;-69
2023/05/24 02:13:43;;;;;;;10.27;2.70;;;;;;;8.06;82.53;101281.97;7395616;19;20070;-70
2023/05/24 02:16:12;;;;;;;16.48;3.85;;;;;;;8.05;82.42;101284.56;7395231;19;20096;-69
2023/05/24 02:18:45;;;;;;;17.90;3.05;;;;;;;8.05;82.26;101282.84;7394918;19;20019;-70
2023/05/24 02:21:13;;;;;;;15.82;3.88;;;;;;;8.05;82.04;101288.06;7397056;19;20019;-70
2023/05/24 02:23:42;;;;;;;14.90;3.40;;;;;;;8.05;82.17;101288.06;7395720;19;20031;-69
2023/05/24 02:26:12;;;;;;;15.00;3.53;;;;;;;8.04;82.24;101283.72;7396506;19;20031;-70
2023/05/24 02:28:50;;;;;;;13.85;3.35;;;;;;;8.06;81.64;101288.94;7394120;19;20485;-69
2023/05/24 02:31:18;;;;;;;17.25;3.47;;;;;;;8.06;82.09;101279.38;7394223;19;20027;-68
2023/05/24 02:33:46;;;;;;;13.00;3.40;;;;;;;8.08;82.10;101281.97;7394338;19;20086;-69
2023/05/24 02:36:15;;;;;;;16.05;3.08;;;;;;;8.10;81.73;101281.09;7394260;19;20436;-69
2023/05/24 02:38:44;;;;;;;12.98;3.05;;;;;;;8.11;81.79;101279.34;7394608;19;20010;-69
2023/05/24 02:41:16;;;;;;;13.25;3.28;;;;;;;8.13;81.66;101278.44;7394450;19;20035;-69
2023/05/24 02:43:45;;;;;;;13.75;3.45;;;;;;;8.14;81.61;101271.50;7394015;19;20093;-68
2023/05/24 02:46:16;;;;;;;16.73;3.45;;;;;;;8.16;81.39;101282.81;7393836;19;20090;-68
2023/05/24 02:48:45;;;;;;;16.05;3.58;;;;;;;8.17;81.64;101273.25;7394815;19;20029;-69
2023/05/24 02:51:13;;;;;;;18.77;4.07;;;;;;;8.18;81.44;101272.38;7394064;19;20055;-68
2023/05/24 02:53:42;;;;;;;10.88;3.45;;;;;;;8.18;81.33;101283.69;7393895;19;20035;-69
2023/05/24 02:56:12;;;;;;;16.02;3.42;;;;;;;8.19;81.45;101279.31;7393977;19;20378;-67
2023/05/24 02:58:42;;;;;;;12.85;3.53;;;;;;;8.20;81.31;101271.50;7393711;19;20494;-69
2023/05/24 03:01:11;;;;;;;15.73;3.33;;;;;;;8.22;81.50;101279.31;7393247;19;20485;-68
2023/05/24 03:03:42;;;;;;;15.20;3.25;;;;;;;8.24;81.45;101281.03;7400047;19;20018;-68
2023/05/24 03:06:12;;;;;;;14.63;4.47;;;;;;;8.25;81.16;101285.41;7400105;19;20014;-69
2023/05/24 03:08:41;;;;;;;15.30;3.60;;;;;;;8.27;81.43;101282.78;7400006;19;20517;-69
2023/05/24 03:11:10;;;;;;;12.23;3.83;;;;;;;8.28;80.94;101285.38;7399058;19;20667;-68
2023/05/24 03:13:39;;;;;;;13.23;3.42;;;;;;;8.30;81.48;101288.88;7398554;19;20526;-68
2023/05/24 03:16:08;;;;;;;13.07;3.22;;;;;;;8.31;81.50;101285.38;7401068;19;20038;-68
2023/05/24 03:18:36;;;;;;;12.07;3.63;;;;;;;8.33;81.29;101288.00;7399475;19;20043;-68
2023/05/24 03:21:07;;;;;;;14.10;3.55;;;;;;;8.32;80.58;101281.88;7399300;19;20043;-68
2023/05/24 03:23:36;;;;;;;19.40;3.92;;;;;;;8.33;80.71;101293.22;7399182;19;20014;-68
2023/05/24 03:26:11;;;;;;;11.43;3.80;;;;;;;8.35;81.07;101291.44;7400040;19;20018;-68
2023/05/24 03:28:40;;;;;;;15.40;4.68;;;;;;;8.37;81.06;101289.72;7399419;19;20014;-69
2023/05/24 03:31:09;;;;;;;17.63;4.22;;;;;;;8.38;80.51;101281.00;7402371;19;20017;-69
2023/05/24 03:33:37;;;;;;;12.77;4.47;;;;;;;8.39;80.41;101284.47;7399313;19;20023;-68
2023/05/24 03:36:09;;;;;;;18.20;3.85;;;;;;;8.40;80.58;101279.22;7402238;19;20014;-70
2023/05/24 03:38:37;;;;;;;15.93;4.28;;;;;;;8.41;80.04;101280.13;7403150;19;20022;-73
2023/05/24 03:41:06;;;;;;;16.05;3.65;;;;;;;8.43;80.42;101281.00;7400490;19;20010;-71
2023/05/24 03:43:34;;;;;;;16.77;3.85;;;;;;;8.43;79.78;101284.47;7402111;19;20015;-72
2023/05/24 03:46:03;;;;;;;12.93;2.92;;;;;;;8.45;79.90;101289.69;7399523;19;20027;-72
2023/05/24 03:48:31;;;;;;;14.77;4.18;;;;;;;8.46;79.96;101288.84;7398339;19;20423;-71
2023/05/24 03:51:00;;;;;;;14.55;4.22;;;;;;;8.47;79.34;101287.97;7399043;19;20010;-72
2023/05/24 03:53:31;;;;;;;16.08;3.90;;;;;;;8.46;79.01;101291.44;7398966;19;20029;-72
2023/05/24 03:55:59;;;;;;;19.58;4.15;;;;;;;8.48;79.06;101292.31;7398253;19;20515;-71
2023/05/24 03:58:28;;;;;;;13.00;3.70;;;;;;;8.48;78.96;101300.16;7401858;19;20050;-70
2023/05/24 04:00:56;;;;;;;12.50;3.45;;;;;;;8.47;78.42;101295.81;7398309;19;20496;-69
2023/05/24 04:03:25;;;;;;;13.65;4.40;;;;;;;8.47;78.76;101295.81;7398151;19;20538;-68
2023/05/24 04:05:53;;;;;;;18.25;4.75;;;;;;;8.48;78.76;101297.56;7399281;19;20010;-68
2023/05/24 04:08:22;;;;;;;14.48;3.95;;;;;;;8.48;78.28;101293.19;7399213;19;20078;-67
2023/05/24 04:10:53;;;;;;;20.20;3.78;;;;;;;8.50;78.33;101292.31;7401785;19;20022;-69
2023/05/24 04:13:22;;;;;;;22.30;4.53;;;;;;;8.52;78.07;101298.38;7396510;19;20015;-68
2023/05/24 04:15:50;;;;;;;14.07;3.63;;;;;;;8.53;78.25;101294.91;7398530;19;20014;-67
2023/05/24 04:18:20;;;;;;;20.23;4.47;;;;;;;8.53;77.50;101298.41;7398296;19;20011;-68
2023/05/24 04:20:48;;;;;;;14.02;3.67;;;;;;;8.55;77.53;101303.63;7398814;19;20020;-67
2023/05/24 04:23:17;;;;;;;18.70;3.55;;;;;;;8.55;77.63;101304.47;7401503;19;20018;-66
2023/05/24 04:25:48;;;;;;;15.65;3.50;;;;;;;8.57;77.55;101305.34;7412149;19;20010;-67
2023/05/24 04:28:21;;;;;;;16.10;3.75;;;;;;;8.61;77.67;101301.84;7405480;19;20027;-67
2023/05/24 04:30:50;;;;;;;14.40;3.95;;;;;;;8.62;77.15;101314.03;7406962;19;20049;-67
2023/05/24 04:33:18;;;;;;;17.52;4.32;;;;;;;8.60;77.22;101305.31;7397646;19;20023;-69
2023/05/24 04:35:47;;;;;;;13.02;3.88;;;;;;;8.67;77.19;101315.75;7400380;19;20031;-68
2023/05/24 04:38:15;;;;;;;16.05;4.85;;;;;;;8.69;77.22;101316.63;7398177;19;20011;-68
2023/05/24 04:40:44;;;;;;;10.30;3.30;;;;;;;8.72;77.28;101316.59;7398112;19;20015;-68
2023/05/24 04:43:14;;;;;;;14.55;3.60;;;;;;;8.73;76.58;101321.84;7397460;19;20019;-69
2023/05/24 04:45:45;;;;;;;17.63;4.30;;;;;;;8.74;76.46;101325.31;7399782;19;20031;-67
2023/05/24 04:48:13;;;;;;;13.82;3.13;;;;;;;8.74;76.67;101325.31;7397396;19;20363;-67
2023/05/24 04:50:42;;;;;;;15.45;3.85;;;;;;;8.72;76.08;101327.06;7396790;19;20451;-68
2023/05/24 04:53:11;;;;;;;14.70;4.60;;;;;;;8.73;76.39;101326.19;7397034;19;20014;-66
2023/05/24 04:55:39;;;;;;;18.15;5.75;;;;;;;8.72;75.97;101335.81;7398717;19;20472;-66
2023/05/24 04:58:08;;;;;;;15.95;3.95;;;;;;;8.61;76.21;101314.91;7398207;19;20043;-67
2023/05/24 05:00:36;;;;;;;13.45;3.67;;;;;;;8.72;76.06;101337.53;7398925;19;20011;-66
2023/05/24 05:03:08;;;;;;;19.90;4.60;;;;;;;8.72;75.77;101341.03;7397811;19;20336;-68
2023/05/24 05:05:37;;;;;;;17.92;4.85;;;;;;;8.73;75.63;101357.59;7398920;19;20011;-68
2023/05/24 05:08:06;;;;;;;15.27;3.90;;;;;;;8.72;74.65;101340.16;7397136;19;20091;-69
2023/05/24 05:10:34;;;;;;;20.33;4.35;;;;;;;8.71;75.89;101351.53;7397767;19;20018;-69
2023/05/24 05:13:03;;;;;;;13.50;3.50;;;;;;;8.72;75.64;101363.69;7398462;19;20015;-68
2023/05/24 05:15:32;;;;;;;17.45;4.32;;;;;;;8.72;75.40;101364.59;7395615;19;20034;-68
2023/05/24 05:18:00;;;;;;;20.38;4.72;;;;;;;8.70;75.42;101360.25;7395985;19;20018;-69
2023/05/24 05:20:31;;;;;;;19.95;4.38;;;;;;;8.69;75.43;101361.97;7394689;19;20073;-68
2023/05/24 05:23:00;;;;;;;15.65;3.85;;;;;;;8.70;75.42;101368.09;7395253;19;20578;-67
2023/05/24 05:25:29;;;;;;;17.52;4.70;;;;;;;8.71;75.51;101382.91;7394579;19;20060;-68
2023/05/24 05:27:58;;;;;;;17.58;4.30;;;;;;;8.72;74.54;101374.16;7396521;19;20011;-67
2023/05/24 05:30:26;;;;;;;17.23;3.97;;;;;;;8.67;74.68;101375.94;7396023;19;20024;-67
2023/05/24 05:32:55;;;;;;;17.63;4.00;;;;;;;8.72;74.95;101379.41;7396442;19;20082;-68
2023/05/24 05:35:23;;;;;;;13.20;4.10;;;;;;;8.71;74.91;101386.38;7395820;19;20022;-67
2023/05/24 05:37:54;;;;;;;16.75;4.20;;;;;;;8.72;74.35;101387.25;7396663;19;20094;-68
2023/05/24 05:40:23;;;;;;;17.08;4.50;;;;;;;8.69;74.39;101385.50;7396743;19;20478;-66
2023/05/24 05:42:52;;;;;;;20.90;4.38;;;;;;;8.63;74.06;101386.41;7396845;19;20396;-67
2023/05/24 05:45:20;;;;;;;19.45;4.25;;;;;;;8.66;74.76;101387.25;7397258;19;20335;-67
2023/05/24 05:47:50;;;;;;;16.63;3.78;;;;;;;8.68;75.03;101390.75;7395976;19;20015;-68
2023/05/24 05:50:18;;;;;;;20.67;4.45;;;;;;;8.66;74.49;101384.66;7397447;19;20082;-68
2023/05/24 05:52:47;;;;;;;15.98;3.70;;;;;;;8.68;74.79;101391.66;7398100;19;20023;-68
2023/05/24 05:55:18;;;;;;;17.58;4.75;;;;;;;8.69;75.23;101390.75;7397284;19;20022;-68
2023/05/24 05:57:46;;;;;;;16.10;3.75;;;;;;;8.71;75.17;101393.38;7395162;19;20026;-68
2023/05/24 06:00:16;;;;;;;15.63;4.03;;;;;;;8.70;75.02;101392.50;7394886;19;20033;-69
2023/05/24 06:02:44;;;;;;;20.13;4.25;;;;;;;8.71;75.12;101402.09;7394715;19;20493;-67
2023/05/24 06:05:13;;;;;;;18.05;3.80;;;;;;;8.70;74.65;101402.09;7394010;19;20015;-68
2023/05/24 06:07:41;;;;;;;12.63;3.50;;;;;;;8.72;75.16;101398.59;7395057;19;20086;-67
2023/05/24 06:10:10;;;;;;;17.52;5.13;;;;;;;8.74;75.16;101406.44;7395713;19;20082;-68
2023/05/24 06:12:41;;;;;;;19.52;4.20;;;;;;;8.75;75.09;101409.03;7396056;19;20036;-67
2023/05/24 06:15:12;;;;;;;15.30;4.25;;;;;;;8.76;75.16;101410.78;7395466;19;20010;-67
2023/05/24 06:17:42;;;;;;;16.73;4.05;;;;;;;8.78;75.16;101421.22;7396348;19;20493;-67
2023/05/24 06:20:14;;;;;;;16.58;3.85;;;;;;;8.78;75.15;101416.91;7397279;19;20015;-67
2023/05/24 06:22:44;;;;;;;22.90;5.03;;;;;;;8.77;75.14;101420.38;7396278;19;20077;-67
2023/05/24 06:25:14;;;;;;;18.85;4.65;;;;;;;8.76;75.06;101412.53;7395673;19;20086;-68
2023/05/24 06:27:45;;;;;;;19.40;4.93;;;;;;;8.77;75.43;101420.38;7395624;19;20031;-68
2023/05/24 06:30:14;;;;;;;19.42;4.40;;;;;;;8.80;75.41;101429.97;7397643;19;20014;-68
2023/05/24 06:32:43;;;;;;;17.45;4.05;;;;;;;8.80;75.54;101422.97;7396858;19;20018;-68
2023/05/24 06:35:12;;;;;;;12.32;4.63;;;;;;;8.82;75.63;101428.22;7399176;19;20019;-68
2023/05/24 06:37:40;;;;;;;20.70;4.05;;;;;;;8.83;75.59;101422.09;7395067;19;20022;-68
2023/05/24 06:40:10;;;;;;;18.27;4.85;;;;;;;8.79;75.88;101409.91;7395682;19;20422;-68
2023/05/24 06:42:40;;;;;;;17.45;5.15;;;;;;;8.88;75.80;101425.56;7395917;19;20082;-68
2023/05/24 06:45:13;;;;;;;21.27;4.57;;;;;;;8.92;75.68;101426.41;7394728;19;20011;-68
2023/05/24 06:47:42;;;;;;;24.83;4.78;;;;;;;8.94;76.10;101425.53;7395965;19;20049;-68
2023/05/24 06:50:11;;;;;;;29.55;5.50;;;;;;;8.99;76.13;101422.06;7394337;19;20027;-68
2023/05/24 06:52:40;;;;;;;24.02;5.28;;;;;;;9.02;76.13;101425.50;7396497;19;20078;-68
2023/05/24 06:55:09;;;;;;;23.77;6.25;;;;;;;9.06;75.97;101428.97;7394398;19;20021;-68
2023/05/24 06:57:44;;;;;;;17.80;4.50;;;;;;;9.07;75.49;101435.97;7394432;19;20078;-68
2023/05/24 07:00:16;;;;;;;22.25;6.32;;;;;;;9.10;75.88;101443.81;7396826;19;20035;-68
2023/05/24 07:02:45;;;;;;;25.98;6.40;;;;;;;9.14;75.84;101442.91;7395142;19;20018;-68
2023/05/24 07:05:13;;;;;;;21.17;4.45;;;;;;;9.16;75.75;101448.13;7393816;19;20022;-69
2023/05/24 07:07:44;;;;;;;21.63;5.15;;;;;;;9.16;75.53;101443.75;7394408;19;20515;-68
2023/05/24 07:10:13;;;;;;;21.23;5.72;;;;;;;9.14;75.97;101435.06;7394127;19;20015;-68
2023/05/24 07:12:42;;;;;;;19.10;5.65;;;;;;;9.21;75.93;101452.50;7395374;19;20021;-68
2023/05/24 07:15:26;;;;;;;26.92;5.10;;;;;;;9.26;75.94;101453.34;7392033;19;20079;-68
2023/05/24 07:17:55;;;;;;;21.48;5.43;;;;;;;9.33;76.21;101453.31;7393073;19;20015;-68
2023/05/24 07:20:23;;;;;;;21.17;5.25;;;;;;;9.38;75.61;101459.38;7393412;19;20024;-68
2023/05/24 07:22:52;;;;;;;22.27;5.32;;;;;;;9.38;75.24;101454.16;7393455;19;20014;-68
2023/05/24 07:25:21;;;;;;;24.17;5.93;;;;;;;9.38;74.93;101454.16;7393091;19;20078;-67
2023/05/24 07:27:50;;;;;;;27.17;5.65;;;;;;;9.40;75.47;101466.34;7393074;19;20074;-67
2023/05/24 07:30:21;;;;;;;23.85;5.93;;;;;;;9.40;75.40;101463.75;7395385;19;20022;-68
2023/05/24 07:32:49;;;;;;;23.00;5.18;;;;;;;9.45;75.67;101466.31;7393918;19;20022;-68
2023/05/24 07:35:19;;;;;;;22.50;5.40;;;;;;;9.49;75.39;101460.19;7395332;19;20091;-68
2023/05/24 07:37:47;;;;;;;24.00;5.85;;;;;;;9.52;74.96;101462.78;7393448;19;20025;-68
2023/05/24 07:40:16;;;;;;;29.00;5.80;;;;;;;9.56;75.04;101467.13;7393083;19;20507;-68
2023/05/24 07:42:46;;;;;;;25.88;5.18;;;;;;;9.59;74.96;101474.09;7395017;19;20015;-68
2023/05/24 07:45:14;;;;;;;22.35;5.57;;;;;;;9.66;75.15;101474.94;7392408;19;20038;-67
2023/05/24 07:47:45;;;;;;;21.75;5.25;;;;;;;9.73;75.02;101474.00;7392698;19;20079;-68
2023/05/24 07:50:14;;;;;;;28.08;6.15;;;;;;;9.77;74.36;101467.88;7399445;19;20045;-67
2023/05/24 07:52:44;;;;;;;23.50;4.97;;;;;;;9.85;74.25;101476.56;7396971;19;20124;-68
2023/05/24 07:55:13;;;;;;;28.15;5.38;;;;;;;9.88;74.02;101487.03;7401311;19;20024;-68
2023/05/24 07:57:41;;;;;;;20.02;5.38;;;;;;;9.92;73.81;101478.25;7400484;19;20019;-69
2023/05/24 08:00:13;;;;;;;33.53;6.53;;;;;;;9.95;74.07;101486.09;7402154;19;20011;-68
2023/05/24 08:02:45;;;;;;;19.08;4.93;;;;;;;10.00;73.87;101485.19;7401165;19;20388;-68
2023/05/24 08:05:15;;;;;;;19.60;5.10;;;;;;;10.04;73.57;101485.16;7401617;19;20011;-68
2023/05/24 08:07:44;;;;;;;24.83;5.70;;;;;;;10.09;73.32;101470.25;7400805;19;20022;-69
2023/05/24 08:10:14;;;;;;;23.50;4.90;;;;;;;10.15;73.53;101495.56;7403121;19;20092;-69
2023/05/24 08:12:42;;;;;;;20.83;5.18;;;;;;;10.19;73.23;101484.16;7398954;19;20018;-68
2023/05/24 08:15:12;;;;;;;26.83;4.88;;;;;;;10.32;72.63;101491.94;7398747;19;20007;-68
2023/05/24 08:17:40;;;;;;;17.95;5.05;;;;;;;10.36;72.03;101491.03;7399439;19;20022;-67
2023/05/24 08:20:14;;;;;;;20.00;5.55;;;;;;;10.40;71.99;101495.38;7398804;19;20489;-68
2023/05/24 08:22:42;;;;;;;17.77;4.63;;;;;;;10.46;71.60;101499.72;7399751;19;20018;-68
2023/05/24 08:25:12;;;;;;;26.20;5.65;;;;;;;10.52;71.72;101492.63;7399113;19;20032;-67
2023/05/24 08:27:40;;;;;;;19.33;4.53;;;;;;;10.57;71.57;101488.22;7399830;19;20010;-68
2023/05/24 08:30:12;;;;;;;14.20;4.50;;;;;;;10.65;71.32;101489.91;7401498;19;20018;-68
2023/05/24 08:32:40;;;;;;;19.27;4.50;;;;;;;10.70;70.93;101501.22;7400944;19;20035;-68
2023/05/24 08:35:12;;;;;;;16.83;5.38;;;;;;;10.74;71.10;101495.94;7400595;19;20106;-68
2023/05/24 08:37:40;;;;;;;23.02;5.00;;;;;;;10.81;71.01;101499.34;7403195;19;20031;-68
2023/05/24 08:40:11;;;;;;;23.33;5.45;;;;;;;10.87;70.15;101501.91;7401470;19;20482;-68
2023/05/24 08:42:40;;;;;;;18.75;5.13;;;;;;;10.93;70.33;101495.72;7403041;19;20011;-68
2023/05/24 08:45:12;;;;;;;21.80;5.18;;;;;;;11.02;70.54;101500.00;7401533;19;20018;-68
2023/05/24 08:47:41;;;;;;;16.33;5.10;;;;;;;11.11;69.77;101492.03;7400876;19;20022;-68
2023/05/24 08:50:13;;;;;;;19.77;5.50;;;;;;;11.18;68.95;101490.19;7401115;19;20024;-67
2023/05/24 08:52:43;;;;;;;20.88;5.00;;;;;;;11.24;69.48;101490.97;7404362;19;20035;-68
2023/05/24 08:55:13;;;;;;;18.30;5.13;;;;;;;11.36;68.99;101489.06;7402693;19;20031;-67
2023/05/24 08:57:42;;;;;;;19.02;5.90;;;;;;;11.44;69.34;101503.00;7407722;19;20035;-69
2023/05/24 09:00:12;;;;;;;16.05;5.88;;;;;;;11.53;67.19;101502.84;7412674;19;20027;-68
2023/05/24 09:02:42;;;;;;;16.33;4.95;;;;;;;11.54;67.94;101509.88;7414708;19;20051;-70
2023/05/24 09:05:15;;;;;;;15.30;4.28;;;;;;;11.55;67.62;101503.72;7413586;19;20041;-68
2023/05/24 09:07:45;;;;;;;16.02;5.45;;;;;;;11.57;67.17;101506.31;7413739;19;20010;-68
2023/05/24 09:10:14;;;;;;;20.25;5.53;;;;;;;11.54;68.02;101487.97;7416397;19;20011;-69
2023/05/24 09:12:49;;;;;;;17.23;4.65;;;;;;;11.61;67.38;101494.88;7415969;19;20019;-69
2023/05/24 09:15:17;;;;;;;23.30;5.82;;;;;;;11.63;66.98;101516.75;7413013;19;20018;-68
2023/05/24 09:17:46;;;;;;;21.80;5.05;;;;;;;11.63;67.36;101511.50;7405514;19;20011;-69
2023/05/24 09:20:17;;;;;;;18.38;5.18;;;;;;;11.69;67.59;101516.66;7403255;19;20023;-69
2023/05/24 09:22:50;;;;;;;14.25;4.60;;;;;;;11.78;67.10;101509.53;7403047;19;20407;-68
2023/05/24 09:25:20;;;;;;;20.40;5.00;;;;;;;11.81;66.22;101504.25;7404518;19;20019;-69
2023/05/24 09:27:53;;;;;;;13.60;4.25;;;;;;;11.86;66.52;101515.56;7409553;19;20115;-68
2023/05/24 09:30:22;;;;;;;21.23;5.43;;;;;;;11.84;66.06;101515.59;7407568;19;20021;-69
2023/05/24 09:32:58;;;;;;;22.65;5.07;;;;;;;11.86;65.59;101502.41;7406186;19;20022;-69
2023/05/24 09:35:30;;;;;;;18.98;4.80;;;;;;;11.88;65.46;101503.28;7406151;19;20011;-67
2023/05/24 09:37:59;;;;;;;18.02;4.60;;;;;;;11.92;65.51;101511.94;7405362;19;20086;-69
2023/05/24 09:40:28;;;;;;;11.43;3.70;;;;;;;11.91;65.42;101511.09;7397161;19;20011;-68
2023/05/24 09:43:11;;;;;;;15.27;3.72;;;;;;;11.92;64.69;101506.69;7397336;19;20018;-67
2023/05/24 09:45:48;;;;;;;17.40;4.47;;;;;;;11.96;64.89;101516.31;7401383;19;20025;-68
2023/05/24 09:48:17;;;;;;;16.98;5.03;;;;;;;11.99;65.44;101516.28;7406052;19;20022;-69
2023/05/24 09:51:00;;;;;;;16.17;4.68;;;;;;;12.05;65.02;101518.81;7403276;19;20011;-69
2023/05/24 09:53:29;;;;;;;15.77;4.10;;;;;;;12.12;64.62;101525.72;7401830;19;20015;-70
2023/05/24 09:55:58;;;;;;;15.20;4.07;;;;;;;12.14;64.74;101510.75;7398603;19;20019;-69
2023/05/24 09:58:32;;;;;;;18.48;4.80;;;;;;;12.18;64.05;101514.22;7395940;19;20049;-69
2023/05/24 10:01:09;;;;;;;16.38;4.22;;;;;;;12.20;63.47;101520.34;7395988;19;20018;-68
2023/05/24 10:03:38;;;;;;;14.68;4.15;;;;;;;12.24;64.76;101521.16;7397435;19;20029;-68
2023/05/24 10:06:10;;;;;;;16.70;4.43;;;;;;;12.26;64.42;101519.34;7396257;19;20481;-68
2023/05/24 10:08:39;;;;;;;13.98;4.07;;;;;;;12.29;64.54;101516.69;7396489;19;20018;-68
2023/05/24 10:11:08;;;;;;;12.52;3.75;;;;;;;12.31;64.02;101513.13;7395054;19;20464;-68
2023/05/24 10:13:38;;;;;;;15.27;4.18;;;;;;;12.34;63.57;101517.47;7397706;19;20022;-69
2023/05/24 10:16:07;;;;;;;14.90;3.70;;;;;;;12.33;63.67;101518.38;7397594;19;20027;-68
2023/05/24 10:18:35;;;;;;;12.05;3.38;;;;;;;12.36;63.57;101516.56;7396318;19;20019;-68
2023/05/24 10:21:10;;;;;;;11.38;3.58;;;;;;;12.46;63.75;101517.28;7395383;19;20074;-68
2023/05/24 10:23:40;;;;;;;9.55;2.75;;;;;;;12.59;62.92;101527.59;7395049;19;20350;-67
2023/05/24 10:26:11;;;;;;;9.18;2.88;;;;;;;12.67;62.27;101525.69;7395779;19;20367;-68
2023/05/24 10:28:46;;;;;;;9.93;3.13;;;;;;;12.76;61.36;101528.13;7397006;19;20022;-68
2023/05/24 10:31:19;;;;;;;11.57;2.90;;;;;;;12.81;61.37;101522.78;7395419;19;20019;-70
2023/05/24 10:33:50;;;;;;;5.40;2.42;;;;;;;12.84;61.43;101526.25;7394657;19;20018;-69
2023/05/24 10:36:22;;;;;;;5.65;2.03;;;;;;;12.87;60.10;101528.81;7394401;19;20038;-69
2023/05/24 10:38:51;;;;;;;11.75;3.50;;;;;;;12.90;61.48;101535.78;7394373;19;20018;-69
2023/05/24 10:41:21;;;;;;;19.35;5.78;;;;;;;12.84;61.37;101517.50;7394793;19;20022;-69
2023/05/24 10:43:50;;;;;;;8.95;3.60;;;;;;;12.93;61.60;101532.22;7393694;19;20019;-69
2023/05/24 10:46:18;;;;;;;10.65;3.38;;;;;;;12.97;60.54;101531.28;7396077;19;20035;-70
2023/05/24 10:49:01;;;;;;;12.38;2.92;;;;;;;13.01;59.96;101528.53;7396157;19;20031;-69
2023/05/24 10:51:37;;;;;;;10.80;3.67;;;;;;;13.07;60.83;101530.19;7393240;19;20014;-70
2023/05/24 10:54:17;;;;;;;10.32;3.58;;;;;;;13.01;59.07;101520.63;7393827;19;20037;-68
2023/05/24 10:56:50;;;;;;;8.93;2.92;;;;;;;13.01;59.55;101519.78;7395848;19;20612;-70
2023/05/24 10:59:32;;;;;;;8.50;2.55;;;;;;;13.04;58.82;101519.69;7394061;19;20007;-70
2023/05/24 11:02:01;;;;;;;11.70;3.22;;;;;;;12.97;59.86;101508.44;7392852;19;20030;-70
2023/05/24 11:04:34;;;;;;;6.50;2.30;;;;;;;13.13;59.53;101524.81;7393044;19;20018;-73
2023/05/24 11:07:08;;;;;;;10.88;3.00;;;;;;;13.18;59.58;101515.03;7393346;19;20427;-71
2023/05/24 11:09:38;;;;;;;12.68;2.83;;;;;;;13.41;59.71;101526.91;7393878;19;20014;-69
2023/05/24 11:12:10;;;;;;;6.28;1.88;;;;;;;13.41;57.87;101503.19;7393636;19;20042;-72
2023/05/24 11:14:41;;;;;;;6.07;2.58;;;;;;;13.66;58.25;101535.16;7392291;19;20018;-69
2023/05/24 11:17:10;;;;;;;12.90;2.75;;;;;;;13.67;57.60;101529.00;7395458;19;20015;-69
2023/05/24 11:19:40;;;;;;;6.20;2.00;;;;;;;13.77;58.16;101534.91;7393230;19;20019;-70
2023/05/24 11:22:12;;;;;;;9.55;4.50;;;;;;;13.81;58.23;101533.97;7394799;19;20015;-69
2023/05/24 11:24:42;;;;;;;8.32;2.42;;;;;;;13.85;58.01;101540.03;7398097;19;20019;-70
2023/05/24 11:27:13;;;;;;;7.88;2.20;;;;;;;13.84;57.25;101530.38;7399343;19;20023;-69
2023/05/24 11:29:43;;;;;;;6.03;2.15;;;;;;;13.80;57.37;101534.84;7402303;19;20014;-68
2023/05/24 11:32:16;;;;;;;11.15;2.97;;;;;;;13.74;57.12;101524.44;7398948;19;20394;-69
2023/05/24 11:34:46;;;;;;;6.07;1.80;;;;;;;13.81;57.09;101535.72;7398660;19;20319;-70
2023/05/24 11:37:18;;;;;;;6.43;2.10;;;;;;;13.83;55.18;101532.13;7399550;19;20019;-69
2023/05/24 11:39:51;;;;;;;8.35;1.95;;;;;;;13.81;55.84;101522.53;7400100;19;20082;-71